sensor_id;sensor_type;location;lat;lon;timestamp;temperature;humidity
2447;DHT22;26430;48.818;9.244;2023-02-21T00:01:33;6.90;99.90
2447;DHT22;26430;48.818;9.244;2023-02-21T00:04:17;7.00;99.90
2447;DHT22;26430;48.818;9.244;2023-02-21T00:07:02;7.00;99.90
2447;DHT22;26430;48.818;9.244;2023-02-21T00:09:46;7.00;99.90
2447;DHT22;26430;48.818;9.244;2023-02-21T00:12:30;7.00;99.90
2447;DHT22;26430;48.818;9.244;2023-02-21T00:15:15;6.80;99.90
2447;DHT22;26430;48.818;9.244;2023-02-21T00:17:59;6.70;99.90
2447;DHT22;26430;48.818;9.244;2023-02-21T00:20:43;6.70;99.90
2447;DHT22;26430;48.818;9.244;2023-02-21T00:23:27;6.60;99.90
2447;DHT22;26430;48.818;9.244;2023-02-21T00:26:16;6.50;99.90
2447;DHT22;26430;48.818;9.244;2023-02-21T00:29:01;6.40;99.90
2447;DHT22;26430;48.818;9.244;2023-02-21T00:31:45;6.30;99.90
2447;DHT22;26430;48.818;9.244;2023-02-21T00:34:30;6.10;99.90
2447;DHT22;26430;48.818;9.244;2023-02-21T00:37:14;6.20;99.90
2447;DHT22;26430;48.818;9.244;2023-02-21T00:39:58;6.30;99.90
2447;DHT22;26430;48.818;9.244;2023-02-21T00:42:42;6.10;99.90
2447;DHT22;26430;48.818;9.244;2023-02-21T00:45:26;6.00;99.90
2447;DHT22;26430;48.818;9.244;2023-02-21T00:48:10;5.90;99.90
2447;DHT22;26430;48.818;9.244;2023-02-21T00:50:54;6.00;99.90
2447;DHT22;26430;48.818;9.244;2023-02-21T00:53:38;6.10;99.90
2447;DHT22;26430;48.818;9.244;2023-02-21T00:56:22;5.90;99.90
2447;DHT22;26430;48.818;9.244;2023-02-21T00:59:06;5.90;99.90
2447;DHT22;26430;48.818;9.244;2023-02-21T01:01:50;6.10;99.90
2447;DHT22;26430;48.818;9.244;2023-02-21T01:04:34;6.10;99.90
2447;DHT22;26430;48.818;9.244;2023-02-21T01:07:18;6.30;99.90
2447;DHT22;26430;48.818;9.244;2023-02-21T01:10:03;6.20;99.90
2447;DHT22;26430;48.818;9.244;2023-02-21T01:12:47;6.30;99.90
2447;DHT22;26430;48.818;9.244;2023-02-21T01:15:31;6.30;99.90
2447;DHT22;26430;48.818;9.244;2023-02-21T01:18:15;6.30;99.90
2447;DHT22;26430;48.818;9.244;2023-02-21T01:20:59;6.10;99.90
2447;DHT22;26430;48.818;9.244;2023-02-21T01:23:43;6.20;99.90
2447;DHT22;26430;48.818;9.244;2023-02-21T01:26:27;6.50;99.90
2447;DHT22;26430;48.818;9.244;2023-02-21T01:29:11;6.20;99.90
2447;DHT22;26430;48.818;9.244;2023-02-21T01:31:55;6.20;99.90
2447;DHT22;26430;48.818;9.244;2023-02-21T01:34:39;6.40;99.90
2447;DHT22;26430;48.818;9.244;2023-02-21T01:37:23;6.20;99.90
2447;DHT22;26430;48.818;9.244;2023-02-21T01:40:12;6.20;99.90
2447;DHT22;26430;48.818;9.244;2023-02-21T01:42:57;6.20;99.90
2447;DHT22;26430;48.818;9.244;2023-02-21T01:45:50;6.30;99.90
2447;DHT22;26430;48.818;9.244;2023-02-21T01:48:35;6.40;99.90
2447;DHT22;26430;48.818;9.244;2023-02-21T01:51:23;6.30;99.90
2447;DHT22;26430;48.818;9.244;2023-02-21T01:54:08;6.40;99.90
2447;DHT22;26430;48.818;9.244;2023-02-21T01:56:53;6.40;99.90
2447;DHT22;26430;48.818;9.244;2023-02-21T01:59:39;6.40;99.90
2447;DHT22;26430;48.818;9.244;2023-02-21T02:02:30;6.40;99.90
2447;DHT22;26430;48.818;9.244;2023-02-21T02:05:17;6.30;99.90
2447;DHT22;26430;48.818;9.244;2023-02-21T02:08:01;6.40;99.90
2447;DHT22;26430;48.818;9.244;2023-02-21T02:10:48;6.40;99.90
2447;DHT22;26430;48.818;9.244;2023-02-21T02:14:01;6.30;99.90
2447;DHT22;26430;48.818;9.244;2023-02-21T02:16:41;6.20;99.90
2447;DHT22;26430;48.818;9.244;2023-02-21T02:19:54;6.30;99.90
2447;DHT22;26430;48.818;9.244;2023-02-21T02:28:51;6.40;99.90
2447;DHT22;26430;48.818;9.244;2023-02-21T02:36:42;5.90;99.90
2447;DHT22;26430;48.818;9.244;2023-02-21T02:39:25;5.90;99.90
2447;DHT22;26430;48.818;9.244;2023-02-21T02:42:11;5.80;99.90
2447;DHT22;26430;48.818;9.244;2023-02-21T02:44:43;5.70;99.90
2447;DHT22;26430;48.818;9.244;2023-02-21T02:47:16;5.60;99.90
2447;DHT22;26430;48.818;9.244;2023-02-21T02:49:43;5.60;99.90
2447;DHT22;26430;48.818;9.244;2023-02-21T02:52:09;5.50;99.90
2447;DHT22;26430;48.818;9.244;2023-02-21T02:54:35;5.50;99.90
2447;DHT22;26430;48.818;9.244;2023-02-21T02:57:04;5.50;99.90
2447;DHT22;26430;48.818;9.244;2023-02-21T02:59:37;5.40;99.90
2447;DHT22;26430;48.818;9.244;2023-02-21T03:02:33;5.30;99.90
2447;DHT22;26430;48.818;9.244;2023-02-21T03:11:03;5.20;99.90
2447;DHT22;26430;48.818;9.244;2023-02-21T03:13:39;5.30;99.90
2447;DHT22;26430;48.818;9.244;2023-02-21T03:16:26;5.20;99.90
2447;DHT22;26430;48.818;9.244;2023-02-21T03:19:13;5.20;99.90
2447;DHT22;26430;48.818;9.244;2023-02-21T03:21:55;5.10;99.90
2447;DHT22;26430;48.818;9.244;2023-02-21T03:24:24;5.00;99.90
2447;DHT22;26430;48.818;9.244;2023-02-21T03:26:52;5.00;99.90
2447;DHT22;26430;48.818;9.244;2023-02-21T03:29:20;4.90;99.90
2447;DHT22;26430;48.818;9.244;2023-02-21T03:31:50;4.90;99.90
2447;DHT22;26430;48.818;9.244;2023-02-21T03:34:19;4.90;99.90
2447;DHT22;26430;48.818;9.244;2023-02-21T03:36:45;4.90;99.90
2447;DHT22;26430;48.818;9.244;2023-02-21T03:39:11;5.00;99.90
2447;DHT22;26430;48.818;9.244;2023-02-21T03:41:37;4.80;99.90
2447;DHT22;26430;48.818;9.244;2023-02-21T03:44:02;4.80;99.90
2447;DHT22;26430;48.818;9.244;2023-02-21T03:46:28;4.70;99.90
2447;DHT22;26430;48.818;9.244;2023-02-21T03:48:54;4.70;99.90
2447;DHT22;26430;48.818;9.244;2023-02-21T03:51:19;4.70;99.90
2447;DHT22;26430;48.818;9.244;2023-02-21T03:53:45;4.60;99.90
2447;DHT22;26430;48.818;9.244;2023-02-21T03:56:10;4.70;99.90
2447;DHT22;26430;48.818;9.244;2023-02-21T03:58:36;4.60;99.90
2447;DHT22;26430;48.818;9.244;2023-02-21T04:01:02;4.50;99.90
2447;DHT22;26430;48.818;9.244;2023-02-21T04:03:29;4.50;99.90
2447;DHT22;26430;48.818;9.244;2023-02-21T04:05:55;4.50;99.90
2447;DHT22;26430;48.818;9.244;2023-02-21T04:08:20;4.40;99.90
2447;DHT22;26430;48.818;9.244;2023-02-21T04:10:46;4.30;99.90
2447;DHT22;26430;48.818;9.244;2023-02-21T04:13:12;4.20;99.90
2447;DHT22;26430;48.818;9.244;2023-02-21T04:15:38;4.10;99.90
2447;DHT22;26430;48.818;9.244;2023-02-21T04:18:04;4.00;99.90
2447;DHT22;26430;48.818;9.244;2023-02-21T04:20:29;3.90;99.90
2447;DHT22;26430;48.818;9.244;2023-02-21T04:22:55;3.90;99.90
2447;DHT22;26430;48.818;9.244;2023-02-21T04:25:21;3.90;99.90
2447;DHT22;26430;48.818;9.244;2023-02-21T04:27:46;3.90;99.90
2447;DHT22;26430;48.818;9.244;2023-02-21T04:30:12;3.90;99.90
2447;DHT22;26430;48.818;9.244;2023-02-21T04:32:38;3.80;99.90
2447;DHT22;26430;48.818;9.244;2023-02-21T04:35:03;3.80;99.90
2447;DHT22;26430;48.818;9.244;2023-02-21T04:37:29;3.90;99.90
2447;DHT22;26430;48.818;9.244;2023-02-21T04:39:55;4.00;99.90
2447;DHT22;26430;48.818;9.244;2023-02-21T04:42:20;4.00;99.90
2447;DHT22;26430;48.818;9.244;2023-02-21T04:44:46;4.00;99.90
2447;DHT22;26430;48.818;9.244;2023-02-21T04:47:11;4.00;99.90
2447;DHT22;26430;48.818;9.244;2023-02-21T04:49:37;4.00;99.90
2447;DHT22;26430;48.818;9.244;2023-02-21T04:52:03;4.00;99.90
2447;DHT22;26430;48.818;9.244;2023-02-21T04:54:28;4.00;99.90
2447;DHT22;26430;48.818;9.244;2023-02-21T04:56:54;3.90;99.90
2447;DHT22;26430;48.818;9.244;2023-02-21T04:59:20;3.80;99.90
2447;DHT22;26430;48.818;9.244;2023-02-21T05:01:45;3.80;99.90
2447;DHT22;26430;48.818;9.244;2023-02-21T05:04:11;3.80;99.90
2447;DHT22;26430;48.818;9.244;2023-02-21T05:06:37;3.80;99.90
2447;DHT22;26430;48.818;9.244;2023-02-21T05:09:03;4.00;99.90
2447;DHT22;26430;48.818;9.244;2023-02-21T05:11:32;4.20;99.90
2447;DHT22;26430;48.818;9.244;2023-02-21T05:13:59;3.60;99.90
2447;DHT22;26430;48.818;9.244;2023-02-21T05:16:25;3.30;99.90
2447;DHT22;26430;48.818;9.244;2023-02-21T05:18:51;3.50;99.90
2447;DHT22;26430;48.818;9.244;2023-02-21T05:21:18;3.50;99.90
2447;DHT22;26430;48.818;9.244;2023-02-21T05:23:44;3.70;99.90
2447;DHT22;26430;48.818;9.244;2023-02-21T05:26:23;3.80;99.90
2447;DHT22;26430;48.818;9.244;2023-02-21T05:28:50;3.90;99.90
2447;DHT22;26430;48.818;9.244;2023-02-21T05:31:16;3.80;99.90
2447;DHT22;26430;48.818;9.244;2023-02-21T05:33:41;3.70;99.90
2447;DHT22;26430;48.818;9.244;2023-02-21T05:36:07;3.80;99.90
2447;DHT22;26430;48.818;9.244;2023-02-21T05:38:43;3.70;99.90
2447;DHT22;26430;48.818;9.244;2023-02-21T05:41:09;3.50;99.90
2447;DHT22;26430;48.818;9.244;2023-02-21T05:43:35;3.40;99.90
2447;DHT22;26430;48.818;9.244;2023-02-21T05:46:00;3.50;99.90
2447;DHT22;26430;48.818;9.244;2023-02-21T05:48:26;3.60;99.90
2447;DHT22;26430;48.818;9.244;2023-02-21T05:50:51;3.60;99.90
2447;DHT22;26430;48.818;9.244;2023-02-21T05:53:17;3.60;99.90
2447;DHT22;26430;48.818;9.244;2023-02-21T05:55:43;3.50;99.90
2447;DHT22;26430;48.818;9.244;2023-02-21T05:58:08;3.50;99.90
2447;DHT22;26430;48.818;9.244;2023-02-21T06:00:34;3.30;99.90
2447;DHT22;26430;48.818;9.244;2023-02-21T06:02:59;3.30;99.90
2447;DHT22;26430;48.818;9.244;2023-02-21T06:05:25;3.20;99.90
2447;DHT22;26430;48.818;9.244;2023-02-21T06:07:51;3.40;99.90
2447;DHT22;26430;48.818;9.244;2023-02-21T06:10:18;3.20;99.90
2447;DHT22;26430;48.818;9.244;2023-02-21T06:12:43;3.30;99.90
2447;DHT22;26430;48.818;9.244;2023-02-21T06:15:09;3.30;99.90
2447;DHT22;26430;48.818;9.244;2023-02-21T06:17:37;3.20;99.90
2447;DHT22;26430;48.818;9.244;2023-02-21T06:20:04;3.20;99.90
2447;DHT22;26430;48.818;9.244;2023-02-21T06:22:30;3.20;99.90
2447;DHT22;26430;48.818;9.244;2023-02-21T06:24:56;3.30;99.90
2447;DHT22;26430;48.818;9.244;2023-02-21T06:27:21;3.40;99.90
2447;DHT22;26430;48.818;9.244;2023-02-21T06:29:47;3.40;99.90
2447;DHT22;26430;48.818;9.244;2023-02-21T06:32:12;3.30;99.90
2447;DHT22;26430;48.818;9.244;2023-02-21T06:34:38;3.50;99.90
2447;DHT22;26430;48.818;9.244;2023-02-21T06:37:04;3.50;99.90
2447;DHT22;26430;48.818;9.244;2023-02-21T06:39:30;3.50;99.90
2447;DHT22;26430;48.818;9.244;2023-02-21T06:41:56;3.60;99.90
2447;DHT22;26430;48.818;9.244;2023-02-21T06:44:21;3.60;99.90
2447;DHT22;26430;48.818;9.244;2023-02-21T06:46:47;3.50;99.90
2447;DHT22;26430;48.818;9.244;2023-02-21T06:49:15;3.60;99.90
2447;DHT22;26430;48.818;9.244;2023-02-21T06:51:41;3.70;99.90
2447;DHT22;26430;48.818;9.244;2023-02-21T06:54:07;3.70;99.90
2447;DHT22;26430;48.818;9.244;2023-02-21T06:56:33;3.80;99.90
2447;DHT22;26430;48.818;9.244;2023-02-21T06:58:59;3.70;99.90
2447;DHT22;26430;48.818;9.244;2023-02-21T07:01:25;3.70;99.90
2447;DHT22;26430;48.818;9.244;2023-02-21T07:03:52;3.70;99.90
2447;DHT22;26430;48.818;9.244;2023-02-21T07:06:18;3.80;99.90
2447;DHT22;26430;48.818;9.244;2023-02-21T07:08:44;3.60;99.90
2447;DHT22;26430;48.818;9.244;2023-02-21T07:11:10;3.40;99.90
2447;DHT22;26430;48.818;9.244;2023-02-21T07:13:36;3.40;99.90
2447;DHT22;26430;48.818;9.244;2023-02-21T07:16:02;3.50;99.90
2447;DHT22;26430;48.818;9.244;2023-02-21T07:18:28;3.40;99.90
2447;DHT22;26430;48.818;9.244;2023-02-21T07:20:54;3.20;99.90
2447;DHT22;26430;48.818;9.244;2023-02-21T07:23:19;3.40;99.90
2447;DHT22;26430;48.818;9.244;2023-02-21T07:25:45;3.60;99.90
2447;DHT22;26430;48.818;9.244;2023-02-21T07:28:11;3.50;99.90
2447;DHT22;26430;48.818;9.244;2023-02-21T07:30:36;3.50;99.90
2447;DHT22;26430;48.818;9.244;2023-02-21T07:33:02;3.70;99.90
2447;DHT22;26430;48.818;9.244;2023-02-21T07:35:28;3.80;99.90
2447;DHT22;26430;48.818;9.244;2023-02-21T07:37:53;3.70;99.90
2447;DHT22;26430;48.818;9.244;2023-02-21T07:40:19;3.70;99.90
2447;DHT22;26430;48.818;9.244;2023-02-21T07:42:45;3.70;99.90
2447;DHT22;26430;48.818;9.244;2023-02-21T07:45:13;3.80;99.90
2447;DHT22;26430;48.818;9.244;2023-02-21T07:47:39;3.80;99.90
2447;DHT22;26430;48.818;9.244;2023-02-21T07:50:06;3.80;99.90
2447;DHT22;26430;48.818;9.244;2023-02-21T07:52:32;3.90;99.90
2447;DHT22;26430;48.818;9.244;2023-02-21T07:54:57;3.90;99.90
2447;DHT22;26430;48.818;9.244;2023-02-21T07:57:23;3.90;99.90
2447;DHT22;26430;48.818;9.244;2023-02-21T07:59:49;4.00;99.90
2447;DHT22;26430;48.818;9.244;2023-02-21T08:02:15;4.20;99.90
2447;DHT22;26430;48.818;9.244;2023-02-21T08:04:41;4.20;99.90
2447;DHT22;26430;48.818;9.244;2023-02-21T08:07:07;4.30;99.90
2447;DHT22;26430;48.818;9.244;2023-02-21T08:09:34;4.50;99.90
2447;DHT22;26430;48.818;9.244;2023-02-21T08:12:00;4.60;99.90
2447;DHT22;26430;48.818;9.244;2023-02-21T08:14:25;4.80;99.90
2447;DHT22;26430;48.818;9.244;2023-02-21T08:16:51;4.70;99.90
2447;DHT22;26430;48.818;9.244;2023-02-21T08:19:17;4.90;99.90
2447;DHT22;26430;48.818;9.244;2023-02-21T08:21:47;5.00;99.90
2447;DHT22;26430;48.818;9.244;2023-02-21T08:24:13;5.20;99.90
2447;DHT22;26430;48.818;9.244;2023-02-21T08:26:40;5.40;99.90
2447;DHT22;26430;48.818;9.244;2023-02-21T08:29:07;5.50;99.90
2447;DHT22;26430;48.818;9.244;2023-02-21T08:31:40;5.60;99.90
2447;DHT22;26430;48.818;9.244;2023-02-21T08:34:07;5.70;99.90
2447;DHT22;26430;48.818;9.244;2023-02-21T08:36:36;5.80;99.90
2447;DHT22;26430;48.818;9.244;2023-02-21T08:39:02;6.00;99.90
2447;DHT22;26430;48.818;9.244;2023-02-21T08:41:42;6.20;99.90
2447;DHT22;26430;48.818;9.244;2023-02-21T08:44:10;6.30;99.90
2447;DHT22;26430;48.818;9.244;2023-02-21T08:46:36;6.50;99.90
2447;DHT22;26430;48.818;9.244;2023-02-21T08:49:04;6.60;99.90
2447;DHT22;26430;48.818;9.244;2023-02-21T08:51:31;6.60;99.90
2447;DHT22;26430;48.818;9.244;2023-02-21T08:53:57;6.80;99.90
2447;DHT22;26430;48.818;9.244;2023-02-21T08:56:24;7.00;99.90
2447;DHT22;26430;48.818;9.244;2023-02-21T08:58:50;6.90;99.90
2447;DHT22;26430;48.818;9.244;2023-02-21T09:01:18;7.10;99.90
2447;DHT22;26430;48.818;9.244;2023-02-21T09:03:43;7.40;99.90
2447;DHT22;26430;48.818;9.244;2023-02-21T09:06:09;7.50;99.90
2447;DHT22;26430;48.818;9.244;2023-02-21T09:08:35;7.60;99.90
2447;DHT22;26430;48.818;9.244;2023-02-21T09:11:01;7.90;99.90
2447;DHT22;26430;48.818;9.244;2023-02-21T09:13:28;8.00;99.90
2447;DHT22;26430;48.818;9.244;2023-02-21T09:15:55;8.20;99.90
2447;DHT22;26430;48.818;9.244;2023-02-21T09:18:21;8.40;99.90
2447;DHT22;26430;48.818;9.244;2023-02-21T09:20:47;8.50;99.90
2447;DHT22;26430;48.818;9.244;2023-02-21T09:23:20;8.80;99.90
2447;DHT22;26430;48.818;9.244;2023-02-21T09:25:49;9.50;99.90
2447;DHT22;26430;48.818;9.244;2023-02-21T09:28:15;10.20;99.90
2447;DHT22;26430;48.818;9.244;2023-02-21T09:30:41;10.70;99.90
2447;DHT22;26430;48.818;9.244;2023-02-21T09:33:07;11.00;99.90
2447;DHT22;26430;48.818;9.244;2023-02-21T09:35:32;11.60;99.90
2447;DHT22;26430;48.818;9.244;2023-02-21T09:37:59;12.40;99.90
2447;DHT22;26430;48.818;9.244;2023-02-21T09:40:28;13.20;99.90
2447;DHT22;26430;48.818;9.244;2023-02-21T09:42:58;14.00;99.90
2447;DHT22;26430;48.818;9.244;2023-02-21T09:45:35;13.20;99.90
2447;DHT22;26430;48.818;9.244;2023-02-21T09:48:08;12.70;99.90
2447;DHT22;26430;48.818;9.244;2023-02-21T09:50:43;14.20;99.90
2447;DHT22;26430;48.818;9.244;2023-02-21T09:53:12;15.40;99.90
2447;DHT22;26430;48.818;9.244;2023-02-21T09:55:39;16.20;99.90
2447;DHT22;26430;48.818;9.244;2023-02-21T09:58:11;15.80;99.90
2447;DHT22;26430;48.818;9.244;2023-02-21T10:00:38;15.70;99.90
2447;DHT22;26430;48.818;9.244;2023-02-21T10:08:38;17.70;97.20
2447;DHT22;26430;48.818;9.244;2023-02-21T10:11:30;18.60;94.60
2447;DHT22;26430;48.818;9.244;2023-02-21T10:16:47;19.20;90.30
2447;DHT22;26430;48.818;9.244;2023-02-21T10:19:20;19.70;87.70
2447;DHT22;26430;48.818;9.244;2023-02-21T10:21:48;19.50;84.40
2447;DHT22;26430;48.818;9.244;2023-02-21T10:24:21;18.80;88.60
2447;DHT22;26430;48.818;9.244;2023-02-21T10:27:07;18.80;85.40
2447;DHT22;26430;48.818;9.244;2023-02-21T10:30:06;19.60;84.80
2447;DHT22;26430;48.818;9.244;2023-02-21T10:32:35;19.90;80.70
2447;DHT22;26430;48.818;9.244;2023-02-21T10:35:02;19.50;82.40
2447;DHT22;26430;48.818;9.244;2023-02-21T10:37:47;19.60;82.00
2447;DHT22;26430;48.818;9.244;2023-02-21T10:43:22;20.60;78.20
2447;DHT22;26430;48.818;9.244;2023-02-21T10:45:58;20.80;75.70
2447;DHT22;26430;48.818;9.244;2023-02-21T10:48:31;21.00;74.00
2447;DHT22;26430;48.818;9.244;2023-02-21T10:51:09;21.00;74.30
2447;DHT22;26430;48.818;9.244;2023-02-21T10:53:40;20.50;75.20
2447;DHT22;26430;48.818;9.244;2023-02-21T10:59:03;19.20;78.10
2447;DHT22;26430;48.818;9.244;2023-02-21T11:01:44;18.20;78.80
2447;DHT22;26430;48.818;9.244;2023-02-21T11:07:06;18.20;81.20
2447;DHT22;26430;48.818;9.244;2023-02-21T11:09:42;18.00;80.80
2447;DHT22;26430;48.818;9.244;2023-02-21T11:14:40;18.70;79.30
2447;DHT22;26430;48.818;9.244;2023-02-21T11:20:04;18.70;79.80
2447;DHT22;26430;48.818;9.244;2023-02-21T11:22:43;18.80;80.50
2447;DHT22;26430;48.818;9.244;2023-02-21T11:25:30;19.10;79.40
2447;DHT22;26430;48.818;9.244;2023-02-21T11:30:36;19.40;78.60
2447;DHT22;26430;48.818;9.244;2023-02-21T11:33:04;19.40;79.40
2447;DHT22;26430;48.818;9.244;2023-02-21T11:35:38;19.20;77.50
2447;DHT22;26430;48.818;9.244;2023-02-21T11:38:34;19.30;77.50
2447;DHT22;26430;48.818;9.244;2023-02-21T11:41:02;19.30;78.60
2447;DHT22;26430;48.818;9.244;2023-02-21T11:43:29;19.30;77.60
2447;DHT22;26430;48.818;9.244;2023-02-21T11:49:21;18.20;77.40
2447;DHT22;26430;48.818;9.244;2023-02-21T11:52:25;18.00;80.30
2447;DHT22;26430;48.818;9.244;2023-02-21T11:54:42;18.00;81.10
2447;DHT22;26430;48.818;9.244;2023-02-21T12:00:25;18.40;82.00
2447;DHT22;26430;48.818;9.244;2023-02-21T12:06:33;19.30;79.30
2447;DHT22;26430;48.818;9.244;2023-02-21T12:09:00;19.40;78.70
2447;DHT22;26430;48.818;9.244;2023-02-21T12:17:13;19.00;78.50
2447;DHT22;26430;48.818;9.244;2023-02-21T12:24:49;18.80;78.20
2447;DHT22;26430;48.818;9.244;2023-02-21T12:30:24;19.40;77.50
2447;DHT22;26430;48.818;9.244;2023-02-21T12:36:05;19.60;75.80
2447;DHT22;26430;48.818;9.244;2023-02-21T12:44:26;18.80;78.30
2447;DHT22;26430;48.818;9.244;2023-02-21T12:47:48;19.10;78.20
2447;DHT22;26430;48.818;9.244;2023-02-21T12:49:52;18.70;77.70
2447;DHT22;26430;48.818;9.244;2023-02-21T12:55:05;19.10;78.40
2447;DHT22;26430;48.818;9.244;2023-02-21T13:00:19;19.40;77.30
2447;DHT22;26430;48.818;9.244;2023-02-21T13:03:11;19.20;78.50
2447;DHT22;26430;48.818;9.244;2023-02-21T13:05:57;19.20;78.90
2447;DHT22;26430;48.818;9.244;2023-02-21T13:09:16;19.30;77.20
2447;DHT22;26430;48.818;9.244;2023-02-21T13:12:10;19.00;76.00
2447;DHT22;26430;48.818;9.244;2023-02-21T13:14:47;18.60;76.60
2447;DHT22;26430;48.818;9.244;2023-02-21T13:17:15;18.70;78.30
2447;DHT22;26430;48.818;9.244;2023-02-21T13:20:08;18.50;79.30
2447;DHT22;26430;48.818;9.244;2023-02-21T13:28:54;17.80;75.50
2447;DHT22;26430;48.818;9.244;2023-02-21T13:31:32;18.20;78.30
2447;DHT22;26430;48.818;9.244;2023-02-21T13:34:06;18.40;78.10
2447;DHT22;26430;48.818;9.244;2023-02-21T13:41:38;18.80;77.10
2447;DHT22;26430;48.818;9.244;2023-02-21T13:44:11;19.00;75.20
2447;DHT22;26430;48.818;9.244;2023-02-21T14:18:44;18.00;77.80
2447;DHT22;26430;48.818;9.244;2023-02-21T14:31:46;17.80;79.60
2447;DHT22;26430;48.818;9.244;2023-02-21T14:34:13;17.70;78.90
2447;DHT22;26430;48.818;9.244;2023-02-21T14:36:40;17.70;78.30
2447;DHT22;26430;48.818;9.244;2023-02-21T14:39:07;17.80;77.10
2447;DHT22;26430;48.818;9.244;2023-02-21T14:45:27;17.60;79.00
2447;DHT22;26430;48.818;9.244;2023-02-21T14:58:28;17.40;78.80
2447;DHT22;26430;48.818;9.244;2023-02-21T15:01:05;17.50;79.80
2447;DHT22;26430;48.818;9.244;2023-02-21T15:03:40;17.40;80.00
2447;DHT22;26430;48.818;9.244;2023-02-21T15:06:13;17.30;80.60
2447;DHT22;26430;48.818;9.244;2023-02-21T15:08:45;17.40;81.30
2447;DHT22;26430;48.818;9.244;2023-02-21T15:13:44;17.40;80.10
2447;DHT22;26430;48.818;9.244;2023-02-21T15:16:12;17.20;81.60
2447;DHT22;26430;48.818;9.244;2023-02-21T15:18:56;17.30;81.50
2447;DHT22;26430;48.818;9.244;2023-02-21T15:21:24;17.30;81.80
2447;DHT22;26430;48.818;9.244;2023-02-21T15:24:14;17.00;84.00
2447;DHT22;26430;48.818;9.244;2023-02-21T15:26:40;17.00;83.40
2447;DHT22;26430;48.818;9.244;2023-02-21T15:31:35;16.90;82.60
2447;DHT22;26430;48.818;9.244;2023-02-21T15:34:03;16.80;83.50
2447;DHT22;26430;48.818;9.244;2023-02-21T15:36:29;16.80;83.90
2447;DHT22;26430;48.818;9.244;2023-02-21T15:39:23;16.70;83.20
2447;DHT22;26430;48.818;9.244;2023-02-21T15:41:51;16.80;84.10
2447;DHT22;26430;48.818;9.244;2023-02-21T15:44:31;16.80;82.80
2447;DHT22;26430;48.818;9.244;2023-02-21T15:47:08;16.80;83.90
2447;DHT22;26430;48.818;9.244;2023-02-21T15:49:39;16.80;84.10
2447;DHT22;26430;48.818;9.244;2023-02-21T15:52:06;16.70;84.30
2447;DHT22;26430;48.818;9.244;2023-02-21T15:54:49;16.70;85.20
2447;DHT22;26430;48.818;9.244;2023-02-21T15:57:35;16.70;85.00
2447;DHT22;26430;48.818;9.244;2023-02-21T16:03:30;16.60;86.40
2447;DHT22;26430;48.818;9.244;2023-02-21T16:11:47;16.20;88.90
2447;DHT22;26430;48.818;9.244;2023-02-21T16:14:30;16.20;88.50
2447;DHT22;26430;48.818;9.244;2023-02-21T16:19:40;15.90;90.30
2447;DHT22;26430;48.818;9.244;2023-02-21T16:22:35;15.70;90.50
2447;DHT22;26430;48.818;9.244;2023-02-21T16:27:43;15.10;91.70
2447;DHT22;26430;48.818;9.244;2023-02-21T16:30:18;14.90;92.10
2447;DHT22;26430;48.818;9.244;2023-02-21T16:32:45;14.80;92.30
2447;DHT22;26430;48.818;9.244;2023-02-21T16:35:20;14.60;92.80
2447;DHT22;26430;48.818;9.244;2023-02-21T16:37:52;14.50;93.00
2447;DHT22;26430;48.818;9.244;2023-02-21T16:40:25;14.50;92.90
2447;DHT22;26430;48.818;9.244;2023-02-21T16:42:51;14.60;93.00
2447;DHT22;26430;48.818;9.244;2023-02-21T16:45:18;14.60;93.10
2447;DHT22;26430;48.818;9.244;2023-02-21T16:47:43;14.50;93.20
2447;DHT22;26430;48.818;9.244;2023-02-21T16:50:31;14.50;93.60
2447;DHT22;26430;48.818;9.244;2023-02-21T16:52:58;14.40;94.00
2447;DHT22;26430;48.818;9.244;2023-02-21T16:55:25;14.30;93.90
2447;DHT22;26430;48.818;9.244;2023-02-21T16:57:54;14.20;94.40
2447;DHT22;26430;48.818;9.244;2023-02-21T17:00:21;14.10;94.30
2447;DHT22;26430;48.818;9.244;2023-02-21T17:02:48;14.10;94.70
2447;DHT22;26430;48.818;9.244;2023-02-21T17:05:15;14.00;94.70
2447;DHT22;26430;48.818;9.244;2023-02-21T17:07:42;13.90;95.10
2447;DHT22;26430;48.818;9.244;2023-02-21T17:10:08;13.90;95.20
2447;DHT22;26430;48.818;9.244;2023-02-21T17:12:34;13.80;95.50
2447;DHT22;26430;48.818;9.244;2023-02-21T17:14:59;13.60;95.90
2447;DHT22;26430;48.818;9.244;2023-02-21T17:17:25;13.50;96.50
2447;DHT22;26430;48.818;9.244;2023-02-21T17:19:51;13.40;96.50
2447;DHT22;26430;48.818;9.244;2023-02-21T17:22:16;13.40;96.60
2447;DHT22;26430;48.818;9.244;2023-02-21T17:24:42;13.20;97.30
2447;DHT22;26430;48.818;9.244;2023-02-21T17:27:08;13.00;97.80
2447;DHT22;26430;48.818;9.244;2023-02-21T17:29:33;12.80;98.30
2447;DHT22;26430;48.818;9.244;2023-02-21T17:31:59;12.70;99.00
2447;DHT22;26430;48.818;9.244;2023-02-21T17:34:32;12.50;99.50
2447;DHT22;26430;48.818;9.244;2023-02-21T17:36:58;12.50;99.90
2447;DHT22;26430;48.818;9.244;2023-02-21T17:39:24;12.40;99.90
2447;DHT22;26430;48.818;9.244;2023-02-21T17:41:50;12.40;99.90
2447;DHT22;26430;48.818;9.244;2023-02-21T17:44:16;12.30;99.90
2447;DHT22;26430;48.818;9.244;2023-02-21T17:46:50;12.30;99.90
2447;DHT22;26430;48.818;9.244;2023-02-21T17:49:17;12.30;99.90
2447;DHT22;26430;48.818;9.244;2023-02-21T17:51:44;12.20;99.90
2447;DHT22;26430;48.818;9.244;2023-02-21T17:54:12;12.20;99.90
2447;DHT22;26430;48.818;9.244;2023-02-21T17:56:37;12.20;99.90
2447;DHT22;26430;48.818;9.244;2023-02-21T17:59:03;12.30;99.90
2447;DHT22;26430;48.818;9.244;2023-02-21T18:01:29;12.20;99.90
2447;DHT22;26430;48.818;9.244;2023-02-21T18:03:56;12.20;99.90
2447;DHT22;26430;48.818;9.244;2023-02-21T18:06:22;12.10;99.90
2447;DHT22;26430;48.818;9.244;2023-02-21T18:08:48;11.90;99.90
2447;DHT22;26430;48.818;9.244;2023-02-21T18:11:15;11.70;99.90
2447;DHT22;26430;48.818;9.244;2023-02-21T18:13:42;11.60;99.90
2447;DHT22;26430;48.818;9.244;2023-02-21T18:16:07;11.60;99.90
2447;DHT22;26430;48.818;9.244;2023-02-21T18:18:34;11.60;99.90
2447;DHT22;26430;48.818;9.244;2023-02-21T18:21:00;11.60;99.90
2447;DHT22;26430;48.818;9.244;2023-02-21T18:23:28;11.70;99.90
2447;DHT22;26430;48.818;9.244;2023-02-21T18:25:54;11.60;99.90
2447;DHT22;26430;48.818;9.244;2023-02-21T18:28:19;11.40;99.90
2447;DHT22;26430;48.818;9.244;2023-02-21T18:30:45;11.40;99.90
2447;DHT22;26430;48.818;9.244;2023-02-21T18:33:12;11.10;99.90
2447;DHT22;26430;48.818;9.244;2023-02-21T18:35:38;11.20;99.90
2447;DHT22;26430;48.818;9.244;2023-02-21T18:38:03;11.30;99.90
2447;DHT22;26430;48.818;9.244;2023-02-21T18:40:29;11.30;99.90
2447;DHT22;26430;48.818;9.244;2023-02-21T18:43:15;11.20;99.90
2447;DHT22;26430;48.818;9.244;2023-02-21T18:45:41;11.20;99.90
2447;DHT22;26430;48.818;9.244;2023-02-21T18:48:07;11.20;99.90
2447;DHT22;26430;48.818;9.244;2023-02-21T18:50:33;11.10;99.90
2447;DHT22;26430;48.818;9.244;2023-02-21T18:52:59;11.10;99.90
2447;DHT22;26430;48.818;9.244;2023-02-21T18:55:26;11.00;99.90
2447;DHT22;26430;48.818;9.244;2023-02-21T18:57:52;10.90;99.90
2447;DHT22;26430;48.818;9.244;2023-02-21T19:00:18;10.90;99.90
2447;DHT22;26430;48.818;9.244;2023-02-21T19:02:44;10.90;99.90
2447;DHT22;26430;48.818;9.244;2023-02-21T19:05:15;10.80;99.90
2447;DHT22;26430;48.818;9.244;2023-02-21T19:07:42;10.80;99.90
2447;DHT22;26430;48.818;9.244;2023-02-21T19:10:09;10.80;99.90
2447;DHT22;26430;48.818;9.244;2023-02-21T19:12:35;10.70;99.90